Time;durP1;ratioP1;P1;durP2;ratioP2;P2;SDS_P1;SDS_P2;PMS_P1;PMS_P2;Temp;Humidity;BMP_temperature;BMP_pressure;BME280_temperature;BME280_humidity;BME280_pressure;Samples;Min_cycle;Max_cycle;Signal;HPM_P1;HPM_P2
2023/08/22 00:03:49;;;;;;;5.55;2.83;;;18.40;99.90;;;;;;10244950;28;20664;-94
2023/08/22 00:08:52;;;;;;;3.88;2.90;;;18.20;99.90;;;;;;10256591;28;20612;-93
2023/08/22 00:13:54;;;;;;;2.80;2.30;;;18.10;99.90;;;;;;10248428;28;20242;-94
2023/08/22 00:18:57;;;;;;;2.67;2.45;;;18.40;99.90;;;;;;10243503;28;20226;-93
2023/08/22 00:23:59;;;;;;;4.63;2.65;;;18.70;99.90;;;;;;10244496;28;20266;-94
2023/08/22 00:29:02;;;;;;;4.30;2.83;;;18.40;99.90;;;;;;10247844;23;20265;-83
2023/08/22 00:34:05;;;;;;;3.90;2.83;;;18.40;99.90;;;;;;10205839;29;20234;-83
2023/08/22 00:39:07;;;;;;;5.35;2.65;;;18.40;99.90;;;;;;10229816;28;20238;-83
2023/08/22 00:44:10;;;;;;;4.53;3.10;;;18.20;99.90;;;;;;10241831;29;20254;-83
2023/08/22 00:49:14;;;;;;;6.15;3.20;;;17.90;99.90;;;;;;10242368;28;20238;-84
2023/08/22 00:54:18;;;;;;;2.97;2.60;;;17.90;99.90;;;;;;10243313;28;20692;-83
2023/08/22 00:59:20;;;;;;;5.00;2.80;;;18.00;99.90;;;;;;10242402;28;20245;-83
2023/08/22 01:04:23;;;;;;;3.15;2.80;;;17.80;99.90;;;;;;10241861;28;20422;-83
2023/08/22 01:09:39;;;;;;;2.80;2.22;;;17.60;99.90;;;;;;10242378;28;20211;-83
2023/08/22 01:14:49;;;;;;;3.25;2.80;;;18.10;99.90;;;;;;10241265;29;20311;-83
2023/08/22 01:19:52;;;;;;;8.50;2.78;;;18.20;99.90;;;;;;10240442;29;20238;-84
2023/08/22 01:24:55;;;;;;;4.55;3.50;;;18.20;99.90;;;;;;10241140;29;20311;-83
2023/08/22 01:30:08;;;;;;;4.28;2.97;;;18.10;99.90;;;;;;10222452;28;20262;-83
2023/08/22 01:35:14;;;;;;;2.65;2.40;;;18.10;99.90;;;;;;10201516;29;20308;-83
2023/08/22 01:40:18;;;;;;;6.35;2.47;;;18.30;99.90;;;;;;10202011;29;20238;-83
2023/08/22 01:45:21;;;;;;;7.22;2.55;;;18.40;99.90;;;;;;10199982;29;20266;-83
2023/08/22 01:50:24;;;;;;;3.22;2.42;;;17.90;99.90;;;;;;10200666;28;20240;-83
2023/08/22 01:55:27;;;;;;;4.03;2.83;;;17.70;99.90;;;;;;10201695;29;20292;-83
2023/08/22 02:00:29;;;;;;;5.43;3.42;;;17.80;99.90;;;;;;10184889;29;20212;-83
2023/08/22 02:05:32;;;;;;;4.75;2.85;;;18.00;99.90;;;;;;10162634;29;20313;-84
2023/08/22 02:10:35;;;;;;;6.55;3.25;;;18.00;99.90;;;;;;10187679;28;20277;-84
2023/08/22 02:15:37;;;;;;;6.72;3.60;;;17.80;99.90;;;;;;10192841;29;20750;-84
2023/08/22 02:20:41;;;;;;;3.97;3.00;;;17.70;99.90;;;;;;10162326;29;20702;-83
2023/08/22 02:25:44;;;;;;;3.53;2.67;;;17.60;99.90;;;;;;10238064;28;20253;-83
2023/08/22 02:30:47;;;;;;;3.42;2.88;;;17.50;99.90;;;;;;10269569;28;20258;-83
2023/08/22 02:35:49;;;;;;;7.97;3.38;;;17.50;99.90;;;;;;10282973;28;20597;-83
2023/08/22 02:40:52;;;;;;;6.82;2.85;;;17.40;99.90;;;;;;10281731;28;20229;-83
2023/08/22 02:45:54;;;;;;;6.25;3.20;;;17.20;99.90;;;;;;10267466;28;20663;-84
2023/08/22 02:50:57;;;;;;;4.90;3.28;;;17.30;99.90;;;;;;10269258;28;20234;-84
2023/08/22 02:56:00;;;;;;;5.90;3.17;;;17.20;99.90;;;;;;10286601;28;20241;-83
2023/08/22 03:01:04;;;;;;;2.95;2.17;;;17.10;99.90;;;;;;10269113;28;21101;-83
2023/08/22 03:06:07;;;;;;;3.95;3.47;;;17.90;99.90;;;;;;10268555;28;20257;-83
2023/08/22 03:11:09;;;;;;;8.20;4.13;;;17.80;99.90;;;;;;10268167;28;20229;-82
2023/08/22 03:16:12;;;;;;;6.97;3.78;;;17.50;99.90;;;;;;10269254;28;20241;-82
2023/08/22 03:21:18;;;;;;;5.63;3.60;;;17.60;99.90;;;;;;10269006;28;20236;-82
2023/08/22 03:26:21;;;;;;;5.65;3.53;;;17.40;99.90;;;;;;10269431;28;20272;-82
2023/08/22 03:31:27;;;;;;;5.25;3.25;;;17.40;99.90;;;;;;10268241;28;20233;-82
2023/08/22 03:36:31;;;;;;;4.75;3.25;;;17.40;99.90;;;;;;10251521;28;20267;-82
2023/08/22 03:41:37;;;;;;;5.63;3.50;;;17.30;99.90;;;;;;10267666;28;20264;-82
2023/08/22 03:46:40;;;;;;;4.45;2.92;;;17.30;99.90;;;;;;10268666;28;20751;-82
2023/08/22 03:51:52;;;;;;;3.15;2.85;;;17.40;99.90;;;;;;10268749;28;20233;-82
2023/08/22 03:56:55;;;;;;;5.68;3.08;;;17.50;99.90;;;;;;10268715;28;20241;-82
2023/08/22 04:01:57;;;;;;;8.35;3.40;;;17.80;99.90;;;;;;10253733;28;20632;-82
2023/08/22 04:07:00;;;;;;;4.28;2.67;;;17.60;99.90;;;;;;10228761;28;20257;-82
2023/08/22 04:12:04;;;;;;;4.95;3.65;;;17.70;99.90;;;;;;10244242;28;20237;-82
2023/08/22 04:17:06;;;;;;;7.97;3.67;;;17.60;99.90;;;;;;10284305;28;20247;-82
2023/08/22 04:22:09;;;;;;;4.15;2.33;;;17.40;99.90;;;;;;10264554;28;20242;-82
2023/08/22 04:27:11;;;;;;;3.42;3.13;;;17.60;99.90;;;;;;10283021;28;20268;-82
2023/08/22 04:32:14;;;;;;;5.07;3.47;;;17.50;99.90;;;;;;10282024;28;20229;-82
2023/08/22 04:37:17;;;;;;;5.72;3.45;;;17.40;99.90;;;;;;10266050;28;20233;-82
2023/08/22 04:42:20;;;;;;;3.28;2.97;;;17.40;99.90;;;;;;10281873;28;20639;-83
2023/08/22 04:47:28;;;;;;;7.75;3.53;;;17.80;99.90;;;;;;10264350;28;20318;-82
2023/08/22 04:52:31;;;;;;;4.45;3.47;;;18.00;99.90;;;;;;10264620;28;20324;-82
2023/08/22 04:57:34;;;;;;;5.53;4.05;;;18.30;99.90;;;;;;10294926;28;20307;-83
2023/08/22 05:14:11;;;;;;;4.60;3.17;;;18.30;99.90;;;;;;10670141;23;20265;-90
2023/08/22 05:19:14;;;;;;;4.45;3.13;;;18.50;99.90;;;;;;10061521;29;20324;-91
2023/08/22 05:24:18;;;;;;;6.03;3.25;;;18.40;99.90;;;;;;10083829;29;20209;-91
2023/08/22 05:29:20;;;;;;;9.43;4.00;;;18.60;99.90;;;;;;10093668;29;20229;-90
2023/08/22 05:34:23;;;;;;;14.30;4.63;;;18.70;99.90;;;;;;10110497;29;20295;-90
2023/08/22 05:39:26;;;;;;;6.93;3.10;;;19.10;99.90;;;;;;10116532;29;20208;-91
2023/08/22 05:44:31;;;;;;;7.25;3.70;;;19.10;99.90;;;;;;10096597;29;20236;-91
2023/08/22 05:49:35;;;;;;;8.50;3.38;;;19.10;99.90;;;;;;10081396;29;20308;-88
2023/08/22 05:54:38;;;;;;;5.15;2.70;;;19.00;99.90;;;;;;10089647;29;20288;-89
2023/08/22 05:59:40;;;;;;;6.65;2.67;;;19.30;99.90;;;;;;10073268;29;20244;-89
2023/08/22 06:04:46;;;;;;;4.90;2.03;;;19.50;99.90;;;;;;10170204;23;20325;-85
2023/08/22 06:09:49;;;;;;;4.05;2.95;;;19.70;99.90;;;;;;10149220;29;20263;-85
2023/08/22 06:14:52;;;;;;;7.43;2.67;;;19.60;99.90;;;;;;10149936;29;20289;-86
2023/08/22 06:19:55;;;;;;;2.85;2.00;;;19.60;99.90;;;;;;10150077;29;20231;-85
2023/08/22 06:24:57;;;;;;;6.50;2.42;;;19.90;99.90;;;;;;10149553;29;20235;-85
2023/08/22 06:30:02;;;;;;;4.38;2.08;;;19.80;99.90;;;;;;10148983;29;20275;-85
2023/08/22 06:35:08;;;;;;;2.33;1.73;;;20.10;99.90;;;;;;10173013;23;20270;-89
2023/08/22 06:40:11;;;;;;;6.32;3.15;;;20.10;99.90;;;;;;10134092;29;20243;-88
2023/08/22 06:45:14;;;;;;;6.53;2.65;;;20.30;99.90;;;;;;10148819;29;20247;-89
2023/08/22 06:50:17;;;;;;;5.63;2.90;;;20.40;99.90;;;;;;10166357;29;20227;-89
2023/08/22 06:55:19;;;;;;;4.00;1.90;;;20.50;99.90;;;;;;10152296;29;20291;-89
2023/08/22 07:00:22;;;;;;;8.10;2.15;;;20.60;99.90;;;;;;10149845;29;20235;-89
2023/08/22 07:05:24;;;;;;;4.47;2.40;;;20.80;99.90;;;;;;10175838;29;20655;-88
2023/08/22 07:10:27;;;;;;;3.25;2.08;;;20.90;99.90;;;;;;10206293;29;20298;-88
2023/08/22 07:15:30;;;;;;;6.57;2.63;;;21.20;99.90;;;;;;10190915;29;20211;-88
2023/08/22 07:20:32;;;;;;;8.27;2.50;;;21.40;99.90;;;;;;10173997;29;20711;-88
2023/08/22 07:25:35;;;;;;;9.32;2.40;;;21.60;99.90;;;;;;10174117;29;20251;-87
2023/08/22 07:30:37;;;;;;;3.05;1.73;;;22.00;99.90;;;;;;10174591;29;20223;-88
2023/08/22 07:35:41;;;;;;;5.00;2.25;;;22.60;99.90;;;;;;10172991;29;20302;-88
2023/08/22 07:40:44;;;;;;;6.00;1.70;;;22.70;95.10;;;;;;10158443;29;20283;-88
2023/08/22 07:45:46;;;;;;;3.53;1.92;;;22.50;95.10;;;;;;10212966;29;20254;-89
2023/08/22 07:50:49;;;;;;;4.88;1.98;;;22.60;97.40;;;;;;10204300;29;20251;-88
2023/08/22 07:55:51;;;;;;;6.25;2.00;;;22.90;95.80;;;;;;10154658;29;20243;-88
2023/08/22 08:00:54;;;;;;;4.45;1.65;;;23.40;95.40;;;;;;10158976;29;20251;-90
2023/08/22 08:05:58;;;;;;;3.10;1.45;;;23.30;92.00;;;;;;10154900;29;20658;-90
2023/08/22 08:11:00;;;;;;;3.28;1.98;;;23.50;94.20;;;;;;10154297;29;20238;-90
2023/08/22 08:16:03;;;;;;;5.18;2.28;;;23.80;95.90;;;;;;10154335;29;20251;-89
2023/08/22 08:21:08;;;;;;;4.60;1.70;;;23.80;90.90;;;;;;10172451;29;20243;-88
2023/08/22 08:26:12;;;;;;;2.72;1.77;;;23.50;82.30;;;;;;10176976;29;20642;-88
2023/08/22 08:31:14;;;;;;;2.70;1.65;;;23.60;90.70;;;;;;10154802;29;20247;-87
2023/08/22 08:36:17;;;;;;;4.13;1.65;;;23.80;85.20;;;;;;10171085;29;20295;-88
2023/08/22 08:41:22;;;;;;;6.78;1.70;;;23.90;88.90;;;;;;10171909;29;20318;-88
2023/08/22 08:46:25;;;;;;;2.90;2.08;;;24.10;87.00;;;;;;10171710;29;20295;-87
2023/08/22 08:51:29;;;;;;;6.20;1.88;;;24.20;92.60;;;;;;10170530;29;20223;-88
2023/08/22 08:56:32;;;;;;;2.33;0.93;;;24.40;90.30;;;;;;10197211;29;20238;-88
2023/08/22 09:01:35;;;;;;;2.50;1.58;;;24.60;76.00;;;;;;10191524;29;20297;-87
2023/08/22 09:06:38;;;;;;;2.67;1.92;;;24.60;71.40;;;;;;10208545;29;20290;-88
2023/08/22 09:11:45;;;;;;;2.35;1.42;;;25.00;85.50;;;;;;10180552;29;20591;-87
2023/08/22 09:16:49;;;;;;;6.97;1.40;;;25.40;87.60;;;;;;10152266;29;20251;-87
2023/08/22 09:21:59;;;;;;;2.45;1.30;;;25.80;71.20;;;;;;10152199;29;20239;-87
2023/08/22 09:27:05;;;;;;;2.25;1.27;;;25.60;63.00;;;;;;10200409;29;20246;-87
2023/08/22 09:32:08;;;;;;;4.90;1.70;;;25.70;61.90;;;;;;10190914;29;20293;-88
2023/08/22 09:37:11;;;;;;;4.93;1.13;;;25.80;63.90;;;;;;10190829;29;20262;-87
2023/08/22 09:42:13;;;;;;;2.85;1.73;;;25.80;67.40;;;;;;10191728;29;20293;-87
2023/08/22 09:47:18;;;;;;;3.92;1.65;;;26.20;73.80;;;;;;10207901;29;20714;-87
2023/08/22 09:52:21;;;;;;;1.92;1.52;;;26.30;60.00;;;;;;10180109;29;20361;-87
2023/08/22 09:57:27;;;;;;;2.20;1.90;;;26.70;72.90;;;;;;10151257;29;20310;-87
2023/08/22 10:02:32;;;;;;;3.00;1.50;;;26.60;71.50;;;;;;10151166;29;20270;-87
2023/08/22 10:07:35;;;;;;;3.67;1.48;;;26.40;57.80;;;;;;10167551;29;20255;-87
2023/08/22 10:12:39;;;;;;;3.85;1.55;;;26.40;64.20;;;;;;10167943;29;20275;-87
2023/08/22 10:17:44;;;;;;;2.25;1.27;;;26.50;59.10;;;;;;10150088;29;20248;-88
2023/08/22 10:22:47;;;;;;;6.20;1.80;;;26.60;65.60;;;;;;10158483;29;20649;-88
2023/08/22 10:27:49;;;;;;;2.33;1.08;;;26.50;51.70;;;;;;10164220;29;20305;-88
2023/08/22 10:33:03;;;;;;;11.15;1.67;;;26.20;52.80;;;;;;10189238;29;20238;-87
2023/08/22 10:38:19;;;;;;;2.95;1.63;;;26.10;60.60;;;;;;10203656;29;20294;-88
2023/08/22 10:43:38;;;;;;;2.40;1.20;;;26.10;47.50;;;;;;10156048;29;20227;-88
2023/08/22 10:48:41;;;;;;;4.95;2.22;;;26.50;51.10;;;;;;10176519;29;20301;-87
2023/08/22 10:53:44;;;;;;;2.42;1.60;;;26.60;52.10;;;;;;10196813;29;20297;-88
2023/08/22 10:59:00;;;;;;;6.65;1.60;;;26.80;63.50;;;;;;10181341;29;20337;-88
2023/08/22 11:04:08;;;;;;;2.13;1.70;;;26.70;51.70;;;;;;10213271;29;20301;-87
2023/08/22 11:09:12;;;;;;;3.00;1.73;;;26.70;56.00;;;;;;10180623;29;20646;-87
2023/08/22 11:14:14;;;;;;;7.88;1.85;;;26.70;49.50;;;;;;10197090;29;20290;-87
2023/08/22 11:19:17;;;;;;;4.90;2.13;;;26.90;49.30;;;;;;10213593;29;20234;-87
2023/08/22 11:24:21;;;;;;;4.32;2.00;;;27.10;52.70;;;;;;10196440;29;20234;-87
2023/08/22 11:29:24;;;;;;;3.35;2.10;;;27.20;46.10;;;;;;10195122;29;20266;-88
2023/08/22 11:34:26;;;;;;;2.65;2.00;;;27.10;51.60;;;;;;10213629;29;20259;-87
2023/08/22 11:39:30;;;;;;;3.40;1.83;;;27.10;55.80;;;;;;10196844;29;20686;-87
2023/08/22 11:44:32;;;;;;;5.55;3.45;;;26.80;52.30;;;;;;10168768;29;20235;-86
2023/08/22 11:49:40;;;;;;;6.70;1.63;;;26.80;47.70;;;;;;10195221;29;20262;-86
2023/08/22 11:54:44;;;;;;;3.65;2.10;;;26.50;46.10;;;;;;10181964;29;20268;-87
2023/08/22 11:59:47;;;;;;;3.75;1.90;;;26.30;50.30;;;;;;10172542;29;20235;-87
2023/08/22 12:04:50;;;;;;;3.13;1.73;;;26.20;56.80;;;;;;10173648;29;20290;-87
2023/08/22 12:10:07;;;;;;;4.40;1.70;;;26.20;58.90;;;;;;10171004;29;20263;-87
2023/08/22 12:15:10;;;;;;;3.88;1.95;;;26.00;58.90;;;;;;10173661;29;20239;-86
2023/08/22 12:20:12;;;;;;;4.95;1.88;;;25.90;55.50;;;;;;10173442;29;20627;-87
2023/08/22 12:25:15;;;;;;;3.65;1.77;;;26.10;63.20;;;;;;10178309;29;20689;-87
2023/08/22 12:30:17;;;;;;;8.55;2.75;;;26.20;62.60;;;;;;10194783;29;20262;-87
2023/08/22 12:35:20;;;;;;;3.67;1.67;;;26.10;60.20;;;;;;10193364;29;20243;-87
2023/08/22 12:40:22;;;;;;;4.13;2.55;;;26.00;59.70;;;;;;10194080;29;20855;-87
2023/08/22 12:45:26;;;;;;;5.22;2.38;;;26.10;62.40;;;;;;10209883;29;20242;-87
2023/08/22 12:50:29;;;;;;;4.95;2.00;;;26.00;67.30;;;;;;10210402;29;20262;-87
2023/08/22 12:55:34;;;;;;;3.17;2.00;;;25.90;64.60;;;;;;10210219;29;20226;-87
2023/08/22 13:00:36;;;;;;;3.03;1.98;;;25.80;66.00;;;;;;10192864;29;20246;-87
2023/08/22 13:05:41;;;;;;;4.20;1.50;;;25.80;64.70;;;;;;10209136;29;20250;-87
2023/08/22 13:10:44;;;;;;;8.32;2.33;;;25.80;74.70;;;;;;10185437;29;20345;-87
2023/08/22 13:15:50;;;;;;;3.70;2.17;;;26.10;71.80;;;;;;10207381;29;20622;-85
2023/08/22 13:20:52;;;;;;;2.88;1.65;;;26.10;69.90;;;;;;10208832;29;20650;-86
2023/08/22 13:25:55;;;;;;;4.88;1.73;;;26.20;77.60;;;;;;10207874;29;20246;-86
2023/08/22 13:30:57;;;;;;;4.05;2.10;;;26.30;68.70;;;;;;10207600;29;20270;-86
2023/08/22 13:36:00;;;;;;;4.70;1.98;;;26.50;71.30;;;;;;10207045;29;20682;-86
2023/08/22 13:41:03;;;;;;;2.75;1.75;;;26.70;64.40;;;;;;10206939;29;20230;-86
2023/08/22 13:46:06;;;;;;;3.22;1.77;;;26.60;69.50;;;;;;10190911;29;20238;-86
2023/08/22 13:51:10;;;;;;;3.28;2.22;;;26.60;68.00;;;;;;10207265;29;20254;-86
2023/08/22 13:56:13;;;;;;;3.00;2.22;;;26.70;68.10;;;;;;10190293;29;20238;-86
2023/08/22 14:01:15;;;;;;;6.05;2.00;;;26.60;68.30;;;;;;10204160;29;20234;-87
2023/08/22 14:06:18;;;;;;;6.82;2.20;;;26.60;65.60;;;;;;10192531;29;20294;-86
2023/08/22 14:11:20;;;;;;;3.92;1.77;;;26.40;63.00;;;;;;10169535;29;20306;-87
2023/08/22 14:16:23;;;;;;;4.78;2.03;;;26.20;66.10;;;;;;10167708;29;20231;-86
2023/08/22 14:21:26;;;;;;;3.58;2.30;;;26.00;64.30;;;;;;10159157;29;20258;-87
2023/08/22 14:26:46;;;;;;;3.58;2.20;;;25.90;67.30;;;;;;10198196;29;20298;-86
2023/08/22 14:31:49;;;;;;;4.03;1.48;;;25.60;73.20;;;;;;10190852;29;20250;-87
2023/08/22 14:36:51;;;;;;;3.40;2.42;;;25.50;69.00;;;;;;10170631;29;20799;-86
2023/08/22 14:41:54;;;;;;;5.00;2.20;;;25.40;73.70;;;;;;10217071;29;20305;-86
2023/08/22 14:46:57;;;;;;;7.30;2.33;;;25.20;71.90;;;;;;10220141;29;20297;-86
2023/08/22 14:51:59;;;;;;;4.85;1.80;;;25.00;75.90;;;;;;10163517;29;20239;-87
2023/08/22 14:57:02;;;;;;;3.05;1.95;;;24.90;81.50;;;;;;10179966;29;20246;-86
2023/08/22 15:02:06;;;;;;;3.33;1.80;;;24.70;83.90;;;;;;10196679;29;20302;-87
2023/08/22 15:07:08;;;;;;;5.45;1.77;;;24.40;89.60;;;;;;10197984;29;20230;-87
2023/08/22 15:12:11;;;;;;;5.80;2.47;;;24.10;92.50;;;;;;10218191;29;20227;-87
2023/08/22 15:17:14;;;;;;;5.05;2.10;;;23.80;96.30;;;;;;10220062;29;20226;-87
2023/08/22 15:22:16;;;;;;;4.18;2.30;;;23.20;99.50;;;;;;10189539;29;20291;-87
2023/08/22 15:27:21;;;;;;;4.50;2.33;;;23.10;99.90;;;;;;10162644;29;20310;-87
2023/08/22 15:32:24;;;;;;;3.50;2.20;;;22.80;99.90;;;;;;10181084;29;20677;-88
2023/08/22 15:37:26;;;;;;;3.00;2.03;;;22.70;99.90;;;;;;10213854;29;20262;-89
2023/08/22 15:42:34;;;;;;;3.58;2.00;;;22.70;99.90;;;;;;10179219;29;20278;-88
2023/08/22 15:47:37;;;;;;;2.95;1.88;;;22.60;99.90;;;;;;10175167;29;20275;-89
2023/08/22 15:52:39;;;;;;;2.72;2.42;;;22.50;99.90;;;;;;10174487;29;20631;-89
2023/08/22 15:57:43;;;;;;;4.65;2.20;;;22.50;99.90;;;;;;10162790;29;20294;-88
2023/08/22 16:02:47;;;;;;;3.80;2.33;;;22.40;99.90;;;;;;10158446;29;20208;-89
2023/08/22 16:07:49;;;;;;;3.88;1.77;;;22.20;99.90;;;;;;10142054;29;20664;-88
2023/08/22 16:12:52;;;;;;;5.57;3.00;;;22.00;99.90;;;;;;10182195;29;20657;-87
2023/08/22 16:17:54;;;;;;;4.20;2.25;;;21.90;99.90;;;;;;10212459;29;20215;-86
2023/08/22 16:22:57;;;;;;;4.63;2.17;;;21.80;99.90;;;;;;9844672;29;9999709;-87
2023/08/22 16:27:59;;;;;;;4.50;2.83;;;21.50;99.90;;;;;;10187969;29;21060;-86
2023/08/22 16:33:02;;;;;;;2.65;2.22;;;21.40;99.90;;;;;;10169317;29;20294;-86
2023/08/22 16:38:05;;;;;;;4.95;1.92;;;21.40;99.90;;;;;;10189923;29;20274;-86
2023/08/22 16:43:07;;;;;;;2.97;2.08;;;21.50;99.90;;;;;;10169623;29;20234;-86
2023/08/22 16:48:10;;;;;;;3.65;1.88;;;21.60;99.90;;;;;;10198948;29;20242;-86
2023/08/22 16:53:13;;;;;;;4.97;2.33;;;21.60;99.90;;;;;;10174106;29;21016;-86
2023/08/22 16:58:15;;;;;;;2.13;1.85;;;21.80;99.90;;;;;;10206177;29;20234;-88
2023/08/22 17:03:18;;;;;;;3.70;2.10;;;21.80;99.90;;;;;;10192023;29;20287;-86
2023/08/22 17:08:20;;;;;;;3.08;2.10;;;21.60;99.90;;;;;;10206900;29;20313;-86
2023/08/22 17:13:23;;;;;;;4.95;1.98;;;21.60;99.90;;;;;;10175654;29;20633;-86
2023/08/22 17:18:26;;;;;;;8.60;2.17;;;21.50;99.90;;;;;;10175973;29;20243;-87
2023/08/22 17:23:28;;;;;;;2.58;1.73;;;21.40;99.90;;;;;;10198265;29;20271;-86
2023/08/22 17:28:31;;;;;;;6.28;2.38;;;21.10;99.90;;;;;;10170926;29;20716;-86
2023/08/22 17:33:41;;;;;;;5.53;2.50;;;21.10;99.90;;;;;;10206662;29;20234;-86
2023/08/22 17:38:44;;;;;;;2.60;1.80;;;20.90;99.90;;;;;;10177757;29;20313;-86
2023/08/22 17:43:46;;;;;;;5.85;1.70;;;21.00;99.90;;;;;;10190216;29;20263;-87
2023/08/22 17:48:49;;;;;;;6.00;1.80;;;21.20;99.90;;;;;;10173545;29;20258;-86
2023/08/22 17:53:54;;;;;;;2.63;1.80;;;21.20;99.90;;;;;;10202796;29;20286;-87
2023/08/22 17:58:57;;;;;;;2.05;1.25;;;21.10;99.90;;;;;;10210250;29;21041;-87
2023/08/22 18:04:01;;;;;;;2.05;1.58;;;21.00;99.90;;;;;;10202417;29;20230;-86
2023/08/22 18:09:03;;;;;;;3.38;1.40;;;20.80;99.90;;;;;;10196649;29;20242;-86
2023/08/22 18:14:06;;;;;;;3.95;1.70;;;20.50;99.90;;;;;;10200966;29;20206;-86
2023/08/22 18:19:08;;;;;;;2.88;1.58;;;20.80;99.90;;;;;;10221346;28;20183;-86
2023/08/22 18:24:11;;;;;;;1.75;1.23;;;20.70;99.90;;;;;;10231822;28;20183;-86
2023/08/22 18:29:14;;;;;;;5.05;1.70;;;20.60;99.90;;;;;;10225543;28;20247;-86
2023/08/22 18:34:16;;;;;;;1.65;1.20;;;20.50;99.90;;;;;;10202281;29;20226;-86
2023/08/22 18:39:19;;;;;;;2.67;1.92;;;20.60;99.90;;;;;;10220370;28;20191;-86
2023/08/22 18:44:21;;;;;;;2.40;1.30;;;20.60;99.90;;;;;;10217781;28;20227;-86
2023/08/22 18:49:24;;;;;;;2.83;1.27;;;20.50;99.90;;;;;;10232032;28;20235;-90
2023/08/22 18:54:26;;;;;;;3.67;1.45;;;20.30;99.90;;;;;;10258357;28;20223;-87
2023/08/22 18:59:29;;;;;;;4.72;1.52;;;20.00;99.90;;;;;;10214642;29;20236;-87
2023/08/22 19:04:31;;;;;;;1.08;0.90;;;19.70;99.90;;;;;;10220755;29;20216;-87
2023/08/22 19:09:34;;;;;;;4.90;1.70;;;19.90;99.90;;;;;;10209173;29;20263;-87
2023/08/22 19:14:36;;;;;;;2.70;1.40;;;19.70;99.90;;;;;;10249904;28;20211;-87
2023/08/22 19:19:39;;;;;;;1.88;1.40;;;19.60;99.90;;;;;;10233205;28;20203;-88
2023/08/22 19:24:42;;;;;;;3.00;1.25;;;19.30;99.90;;;;;;10225447;28;20235;-87
2023/08/22 19:29:44;;;;;;;1.38;1.05;;;19.00;99.90;;;;;;10215797;29;20218;-88
2023/08/22 19:34:47;;;;;;;4.63;2.00;;;18.90;99.90;;;;;;10255148;28;20236;-87
2023/08/22 19:39:50;;;;;;;3.83;1.52;;;19.00;99.90;;;;;;10220712;28;20216;-87
2023/08/22 19:44:53;;;;;;;4.10;1.70;;;19.10;99.90;;;;;;10233482;28;20302;-87
2023/08/22 19:49:56;;;;;;;7.03;2.10;;;18.10;99.90;;;;;;10233009;28;20211;-87
2023/08/22 19:54:58;;;;;;;3.50;2.25;;;17.60;99.90;;;;;;10236001;29;20228;-87
2023/08/22 20:00:01;;;;;;;6.82;2.47;;;17.20;99.90;;;;;;10247926;28;20221;-88
2023/08/22 20:05:09;;;;;;;4.13;2.40;;;17.00;99.90;;;;;;10237645;28;20182;-87
2023/08/22 20:10:12;;;;;;;2.72;2.05;;;16.80;99.90;;;;;;10238680;28;20244;-88
2023/08/22 20:15:15;;;;;;;5.25;2.22;;;16.80;99.90;;;;;;10247358;28;20187;-86
2023/08/22 20:20:18;;;;;;;5.45;2.95;;;16.60;99.90;;;;;;10261435;28;20180;-87
2023/08/22 20:25:21;;;;;;;4.47;2.10;;;16.40;99.90;;;;;;10221351;29;20216;-88
2023/08/22 20:30:23;;;;;;;3.67;2.13;;;16.20;99.90;;;;;;10240088;28;20251;-87
2023/08/22 20:35:26;;;;;;;4.57;2.65;;;16.10;99.90;;;;;;10261948;28;20216;-88
2023/08/22 20:40:28;;;;;;;3.03;2.38;;;16.00;99.90;;;;;;10228120;29;20204;-88
2023/08/22 20:45:31;;;;;;;11.45;2.53;;;15.90;99.90;;;;;;10257364;28;20203;-88
2023/08/22 20:50:33;;;;;;;3.13;2.35;;;15.90;99.90;;;;;;10251798;28;20206;-88
2023/08/22 20:55:39;;;;;;;5.55;2.47;;;15.70;99.90;;;;;;10266753;28;20187;-88
2023/08/22 21:00:42;;;;;;;6.05;2.05;;;15.60;99.90;;;;;;10214449;29;20247;-88
2023/08/22 21:05:45;;;;;;;3.17;2.00;;;15.40;99.90;;;;;;10211834;29;20184;-89
2023/08/22 21:10:47;;;;;;;6.78;2.33;;;15.30;99.90;;;;;;10250433;28;20211;-87
2023/08/22 21:15:49;;;;;;;8.35;2.17;;;15.20;99.90;;;;;;10225604;28;20183;-88
2023/08/22 21:20:53;;;;;;;4.05;2.40;;;15.10;99.90;;;;;;10225502;29;20184;-88
2023/08/22 21:25:57;;;;;;;8.18;2.38;;;15.00;99.90;;;;;;10213451;29;20208;-89
2023/08/22 21:30:59;;;;;;;10.90;2.92;;;14.90;99.90;;;;;;10226431;28;20207;-88
2023/08/22 21:36:02;;;;;;;6.43;3.15;;;14.70;99.90;;;;;;10248341;28;20263;-88
2023/08/22 21:41:05;;;;;;;7.32;3.22;;;14.80;99.90;;;;;;10234772;29;20223;-87
2023/08/22 21:46:07;;;;;;;9.27;2.58;;;14.80;99.90;;;;;;10243522;28;20187;-88
2023/08/22 21:51:10;;;;;;;10.70;2.60;;;14.70;99.90;;;;;;10234506;28;20215;-88
2023/08/22 21:56:12;;;;;;;3.22;2.78;;;14.60;99.90;;;;;;10235840;28;20180;-88
2023/08/22 22:01:16;;;;;;;7.75;2.55;;;14.60;99.90;;;;;;10226580;29;20207;-88
2023/08/22 22:06:18;;;;;;;7.05;3.20;;;14.60;99.90;;;;;;10188369;29;20211;-88
2023/08/22 22:11:21;;;;;;;6.40;2.92;;;14.60;99.90;;;;;;10203000;29;20227;-88
2023/08/22 22:16:24;;;;;;;4.80;2.45;;;14.40;99.90;;;;;;10217127;29;20665;-88
2023/08/22 22:21:44;;;;;;;5.55;3.13;;;14.40;99.90;;;;;;10192049;29;20242;-88
2023/08/22 22:26:47;;;;;;;4.82;2.28;;;14.30;99.90;;;;;;10193073;29;20211;-88
2023/08/22 22:31:49;;;;;;;6.20;2.38;;;14.30;99.90;;;;;;10191410;29;20279;-88
2023/08/22 22:36:52;;;;;;;3.08;1.05;;;14.30;99.90;;;;;;10179954;29;20227;-88
2023/08/22 22:41:55;;;;;;;1.83;1.10;;;14.40;99.90;;;;;;10174693;29;20239;-89
2023/08/22 22:46:59;;;;;;;1.75;1.60;;;15.00;99.90;;;;;;10184469;29;20290;-89
2023/08/22 22:52:02;;;;;;;4.30;1.60;;;15.60;99.90;;;;;;10186813;29;20285;-89
2023/08/22 22:57:05;;;;;;;1.45;1.33;;;15.60;99.90;;;;;;10222035;29;20207;-89
2023/08/22 23:02:07;;;;;;;2.15;1.50;;;16.10;99.90;;;;;;10188049;29;20267;-89
2023/08/22 23:07:10;;;;;;;6.00;1.23;;;16.50;99.90;;;;;;10165090;29;20278;-89
2023/08/22 23:12:13;;;;;;;2.35;1.33;;;16.60;99.90;;;;;;10183224;29;20252;-89
2023/08/22 23:17:18;;;;;;;4.22;1.67;;;16.40;99.90;;;;;;10182532;29;20237;-89
2023/08/22 23:22:20;;;;;;;1.90;0.85;;;16.50;99.90;;;;;;10165678;29;20211;-89
2023/08/22 23:27:23;;;;;;;1.92;1.30;;;16.40;99.90;;;;;;10184326;29;20290;-89
2023/08/22 23:32:27;;;;;;;2.08;1.70;;;16.20;99.90;;;;;;10194601;29;20259;-89
2023/08/22 23:37:30;;;;;;;1.40;1.30;;;15.90;99.90;;;;;;10164815;29;20268;-89
2023/08/22 23:42:33;;;;;;;3.00;1.85;;;15.70;99.90;;;;;;10181191;29;20373;-90
2023/08/22 23:47:35;;;;;;;2.78;1.90;;;15.90;99.90;;;;;;10178637;29;20203;-90
2023/08/22 23:52:38;;;;;;;2.78;1.60;;;15.70;99.90;;;;;;10175034;29;20617;-89
2023/08/22 23:57:41;;;;;;;3.67;2.08;;;15.50;99.90;;;;;;10212053;29;20281;-90
